sensor_id;sensor_type;location;lat;lon;timestamp;P1;durP1;ratioP1;P2;durP2;ratioP2
23434;SDS011;11890;45.380;11.028;2023-08-30T00:01:23;2.50;;;0.30;;
23434;SDS011;11890;45.380;11.028;2023-08-30T00:03:51;0.65;;;0.20;;
23434;SDS011;11890;45.380;11.028;2023-08-30T00:06:19;1.95;;;0.30;;
23434;SDS011;11890;45.380;11.028;2023-08-30T00:08:47;0.95;;;0.30;;
23434;SDS011;11890;45.380;11.028;2023-08-30T00:11:14;1.80;;;0.38;;
23434;SDS011;11890;45.380;11.028;2023-08-30T00:13:42;1.73;;;0.20;;
23434;SDS011;11890;45.380;11.028;2023-08-30T00:16:10;2.55;;;0.50;;
23434;SDS011;11890;45.380;11.028;2023-08-30T00:18:39;2.08;;;0.60;;
23434;SDS011;11890;45.380;11.028;2023-08-30T00:21:07;4.00;;;1.08;;
23434;SDS011;11890;45.380;11.028;2023-08-30T00:23:35;5.97;;;1.92;;
23434;SDS011;11890;45.380;11.028;2023-08-30T00:26:03;9.68;;;3.80;;
23434;SDS011;11890;45.380;11.028;2023-08-30T00:28:30;18.77;;;5.22;;
23434;SDS011;11890;45.380;11.028;2023-08-30T00:31:00;14.50;;;5.03;;
23434;SDS011;11890;45.380;11.028;2023-08-30T00:33:28;16.30;;;5.63;;
23434;SDS011;11890;45.380;11.028;2023-08-30T00:35:56;13.57;;;5.80;;
23434;SDS011;11890;45.380;11.028;2023-08-30T00:38:26;18.08;;;5.88;;
23434;SDS011;11890;45.380;11.028;2023-08-30T00:40:54;14.13;;;5.40;;
23434;SDS011;11890;45.380;11.028;2023-08-30T00:43:22;9.13;;;4.28;;
23434;SDS011;11890;45.380;11.028;2023-08-30T00:45:49;20.58;;;8.05;;
23434;SDS011;11890;45.380;11.028;2023-08-30T00:48:19;28.13;;;12.55;;
23434;SDS011;11890;45.380;11.028;2023-08-30T00:50:47;27.15;;;10.38;;
23434;SDS011;11890;45.380;11.028;2023-08-30T00:53:19;17.92;;;8.32;;
23434;SDS011;11890;45.380;11.028;2023-08-30T00:55:52;18.58;;;7.40;;
23434;SDS011;11890;45.380;11.028;2023-08-30T00:58:20;13.38;;;4.82;;
23434;SDS011;11890;45.380;11.028;2023-08-30T01:00:50;12.70;;;4.78;;
23434;SDS011;11890;45.380;11.028;2023-08-30T01:03:21;11.27;;;4.55;;
23434;SDS011;11890;45.380;11.028;2023-08-30T01:06:03;16.60;;;5.57;;
23434;SDS011;11890;45.380;11.028;2023-08-30T01:08:37;17.52;;;4.53;;
23434;SDS011;11890;45.380;11.028;2023-08-30T01:11:08;10.27;;;3.83;;
23434;SDS011;11890;45.380;11.028;2023-08-30T01:13:40;8.27;;;3.65;;
23434;SDS011;11890;45.380;11.028;2023-08-30T01:16:09;8.40;;;2.88;;
23434;SDS011;11890;45.380;11.028;2023-08-30T01:18:37;7.03;;;2.97;;
23434;SDS011;11890;45.380;11.028;2023-08-30T01:21:07;7.72;;;2.47;;
23434;SDS011;11890;45.380;11.028;2023-08-30T01:23:40;5.80;;;1.88;;
23434;SDS011;11890;45.380;11.028;2023-08-30T01:28:37;2.92;;;1.45;;
23434;SDS011;11890;45.380;11.028;2023-08-30T01:31:07;1.98;;;1.00;;
23434;SDS011;11890;45.380;11.028;2023-08-30T01:33:40;2.78;;;1.17;;
23434;SDS011;11890;45.380;11.028;2023-08-30T01:36:08;2.97;;;1.17;;
23434;SDS011;11890;45.380;11.028;2023-08-30T01:38:36;2.60;;;1.20;;
23434;SDS011;11890;45.380;11.028;2023-08-30T01:41:05;2.63;;;0.93;;
23434;SDS011;11890;45.380;11.028;2023-08-30T01:43:33;3.47;;;0.95;;
23434;SDS011;11890;45.380;11.028;2023-08-30T01:46:03;2.28;;;1.02;;
23434;SDS011;11890;45.380;11.028;2023-08-30T01:48:31;1.83;;;0.90;;
23434;SDS011;11890;45.380;11.028;2023-08-30T01:51:01;1.95;;;0.88;;
23434;SDS011;11890;45.380;11.028;2023-08-30T01:53:29;4.45;;;1.38;;
23434;SDS011;11890;45.380;11.028;2023-08-30T01:55:58;1.73;;;1.05;;
23434;SDS011;11890;45.380;11.028;2023-08-30T01:58:26;2.42;;;0.77;;
23434;SDS011;11890;45.380;11.028;2023-08-30T02:00:53;3.67;;;1.15;;
23434;SDS011;11890;45.380;11.028;2023-08-30T02:03:22;2.60;;;1.10;;
23434;SDS011;11890;45.380;11.028;2023-08-30T02:06:04;2.22;;;0.80;;
23434;SDS011;11890;45.380;11.028;2023-08-30T02:08:37;1.83;;;0.73;;
23434;SDS011;11890;45.380;11.028;2023-08-30T02:11:07;4.63;;;1.02;;
23434;SDS011;11890;45.380;11.028;2023-08-30T02:13:39;3.72;;;0.75;;
23434;SDS011;11890;45.380;11.028;2023-08-30T02:16:07;2.25;;;0.90;;
23434;SDS011;11890;45.380;11.028;2023-08-30T02:18:36;3.92;;;0.90;;
23434;SDS011;11890;45.380;11.028;2023-08-30T02:21:05;4.18;;;0.80;;
23434;SDS011;11890;45.380;11.028;2023-08-30T02:23:33;2.92;;;0.65;;
23434;SDS011;11890;45.380;11.028;2023-08-30T02:26:01;3.70;;;1.10;;
23434;SDS011;11890;45.380;11.028;2023-08-30T02:28:30;1.58;;;0.52;;
23434;SDS011;11890;45.380;11.028;2023-08-30T02:30:58;3.72;;;0.70;;
23434;SDS011;11890;45.380;11.028;2023-08-30T02:33:25;1.63;;;0.80;;
23434;SDS011;11890;45.380;11.028;2023-08-30T02:35:53;1.90;;;0.82;;
23434;SDS011;11890;45.380;11.028;2023-08-30T02:38:21;0.95;;;0.50;;
23434;SDS011;11890;45.380;11.028;2023-08-30T02:40:49;1.23;;;0.70;;
23434;SDS011;11890;45.380;11.028;2023-08-30T02:43:16;2.15;;;0.75;;
23434;SDS011;11890;45.380;11.028;2023-08-30T02:45:44;2.08;;;0.60;;
23434;SDS011;11890;45.380;11.028;2023-08-30T02:48:12;2.78;;;0.80;;
23434;SDS011;11890;45.380;11.028;2023-08-30T02:50:40;1.83;;;0.70;;
23434;SDS011;11890;45.380;11.028;2023-08-30T02:53:08;2.33;;;0.73;;
23434;SDS011;11890;45.380;11.028;2023-08-30T02:55:36;1.73;;;0.60;;
23434;SDS011;11890;45.380;11.028;2023-08-30T02:58:04;3.03;;;0.75;;
23434;SDS011;11890;45.380;11.028;2023-08-30T03:00:32;3.42;;;0.55;;
23434;SDS011;11890;45.380;11.028;2023-08-30T03:03:01;1.17;;;0.50;;
23434;SDS011;11890;45.380;11.028;2023-08-30T03:05:29;1.30;;;0.47;;
23434;SDS011;11890;45.380;11.028;2023-08-30T03:07:57;0.88;;;0.60;;
23434;SDS011;11890;45.380;11.028;2023-08-30T03:10:25;1.20;;;0.60;;
23434;SDS011;11890;45.380;11.028;2023-08-30T03:12:53;1.05;;;0.50;;
23434;SDS011;11890;45.380;11.028;2023-08-30T03:15:21;2.25;;;0.75;;
23434;SDS011;11890;45.380;11.028;2023-08-30T03:17:49;1.13;;;0.70;;
23434;SDS011;11890;45.380;11.028;2023-08-30T03:20:17;1.45;;;0.60;;
23434;SDS011;11890;45.380;11.028;2023-08-30T03:22:45;1.52;;;0.63;;
23434;SDS011;11890;45.380;11.028;2023-08-30T03:25:13;3.95;;;0.80;;
23434;SDS011;11890;45.380;11.028;2023-08-30T03:27:43;1.88;;;0.70;;
23434;SDS011;11890;45.380;11.028;2023-08-30T03:30:11;1.90;;;0.70;;
23434;SDS011;11890;45.380;11.028;2023-08-30T03:32:38;1.00;;;0.50;;
23434;SDS011;11890;45.380;11.028;2023-08-30T03:35:07;0.80;;;0.50;;
23434;SDS011;11890;45.380;11.028;2023-08-30T03:37:35;0.98;;;0.63;;
23434;SDS011;11890;45.380;11.028;2023-08-30T03:40:03;1.17;;;0.63;;
23434;SDS011;11890;45.380;11.028;2023-08-30T03:42:31;3.17;;;0.82;;
23434;SDS011;11890;45.380;11.028;2023-08-30T03:45:00;2.85;;;0.85;;
23434;SDS011;11890;45.380;11.028;2023-08-30T03:47:29;3.17;;;0.80;;
23434;SDS011;11890;45.380;11.028;2023-08-30T03:49:57;2.50;;;0.90;;
23434;SDS011;11890;45.380;11.028;2023-08-30T03:52:25;1.27;;;0.80;;
23434;SDS011;11890;45.380;11.028;2023-08-30T03:54:53;3.70;;;0.82;;
23434;SDS011;11890;45.380;11.028;2023-08-30T03:57:21;4.07;;;0.90;;
23434;SDS011;11890;45.380;11.028;2023-08-30T03:59:48;1.05;;;0.75;;
23434;SDS011;11890;45.380;11.028;2023-08-30T04:02:16;1.27;;;0.70;;
23434;SDS011;11890;45.380;11.028;2023-08-30T04:04:46;2.78;;;1.10;;
23434;SDS011;11890;45.380;11.028;2023-08-30T04:07:15;2.90;;;1.63;;
23434;SDS011;11890;45.380;11.028;2023-08-30T04:09:42;2.53;;;1.13;;
23434;SDS011;11890;45.380;11.028;2023-08-30T04:12:10;2.47;;;1.10;;
23434;SDS011;11890;45.380;11.028;2023-08-30T04:14:38;1.77;;;0.70;;
23434;SDS011;11890;45.380;11.028;2023-08-30T04:17:06;1.98;;;0.85;;
23434;SDS011;11890;45.380;11.028;2023-08-30T04:19:33;1.15;;;0.70;;
23434;SDS011;11890;45.380;11.028;2023-08-30T04:22:01;2.92;;;0.60;;
23434;SDS011;11890;45.380;11.028;2023-08-30T04:24:29;2.85;;;0.70;;
23434;SDS011;11890;45.380;11.028;2023-08-30T04:26:57;1.48;;;0.50;;
23434;SDS011;11890;45.380;11.028;2023-08-30T04:29:25;1.73;;;0.47;;
23434;SDS011;11890;45.380;11.028;2023-08-30T04:31:52;1.98;;;0.70;;
23434;SDS011;11890;45.380;11.028;2023-08-30T04:34:21;2.08;;;0.80;;
23434;SDS011;11890;45.380;11.028;2023-08-30T04:36:49;1.27;;;0.55;;
23434;SDS011;11890;45.380;11.028;2023-08-30T04:39:17;4.70;;;1.00;;
23434;SDS011;11890;45.380;11.028;2023-08-30T04:41:45;4.05;;;0.63;;
23434;SDS011;11890;45.380;11.028;2023-08-30T04:44:13;3.72;;;0.70;;
23434;SDS011;11890;45.380;11.028;2023-08-30T04:46:41;5.30;;;0.80;;
23434;SDS011;11890;45.380;11.028;2023-08-30T04:49:08;2.00;;;0.82;;
23434;SDS011;11890;45.380;11.028;2023-08-30T04:51:36;2.30;;;0.77;;
23434;SDS011;11890;45.380;11.028;2023-08-30T04:54:05;1.90;;;0.60;;
23434;SDS011;11890;45.380;11.028;2023-08-30T04:56:34;3.65;;;0.77;;
23434;SDS011;11890;45.380;11.028;2023-08-30T04:59:01;2.53;;;0.75;;
23434;SDS011;11890;45.380;11.028;2023-08-30T05:01:31;2.53;;;1.10;;
23434;SDS011;11890;45.380;11.028;2023-08-30T05:04:00;3.10;;;0.90;;
23434;SDS011;11890;45.380;11.028;2023-08-30T05:06:27;1.50;;;0.70;;
23434;SDS011;11890;45.380;11.028;2023-08-30T05:08:55;2.83;;;0.80;;
23434;SDS011;11890;45.380;11.028;2023-08-30T05:11:25;3.35;;;0.85;;
23434;SDS011;11890;45.380;11.028;2023-08-30T05:13:54;2.88;;;0.55;;
23434;SDS011;11890;45.380;11.028;2023-08-30T05:16:21;3.40;;;0.90;;
23434;SDS011;11890;45.380;11.028;2023-08-30T05:18:50;2.33;;;0.70;;
23434;SDS011;11890;45.380;11.028;2023-08-30T05:21:18;3.47;;;0.85;;
23434;SDS011;11890;45.380;11.028;2023-08-30T05:23:46;4.30;;;0.90;;
23434;SDS011;11890;45.380;11.028;2023-08-30T05:26:14;3.58;;;0.88;;
23434;SDS011;11890;45.380;11.028;2023-08-30T05:28:43;4.43;;;0.90;;
23434;SDS011;11890;45.380;11.028;2023-08-30T05:31:11;1.98;;;0.90;;
23434;SDS011;11890;45.380;11.028;2023-08-30T05:33:58;2.72;;;0.70;;
23434;SDS011;11890;45.380;11.028;2023-08-30T05:36:46;2.58;;;0.68;;
23434;SDS011;11890;45.380;11.028;2023-08-30T05:39:37;5.47;;;0.75;;
23434;SDS011;11890;45.380;11.028;2023-08-30T05:42:05;4.13;;;1.08;;
23434;SDS011;11890;45.380;11.028;2023-08-30T05:44:33;3.50;;;0.68;;
23434;SDS011;11890;45.380;11.028;2023-08-30T05:47:00;5.63;;;0.90;;
23434;SDS011;11890;45.380;11.028;2023-08-30T05:49:28;6.82;;;1.02;;
23434;SDS011;11890;45.380;11.028;2023-08-30T05:51:56;8.98;;;1.10;;
23434;SDS011;11890;45.380;11.028;2023-08-30T05:54:24;3.40;;;0.93;;
23434;SDS011;11890;45.380;11.028;2023-08-30T05:56:56;2.60;;;0.75;;
23434;SDS011;11890;45.380;11.028;2023-08-30T05:59:24;2.90;;;0.73;;
23434;SDS011;11890;45.380;11.028;2023-08-30T06:01:51;4.30;;;1.17;;
23434;SDS011;11890;45.380;11.028;2023-08-30T06:04:19;2.30;;;0.75;;
23434;SDS011;11890;45.380;11.028;2023-08-30T06:06:47;4.38;;;1.20;;
23434;SDS011;11890;45.380;11.028;2023-08-30T06:09:15;2.67;;;0.90;;
23434;SDS011;11890;45.380;11.028;2023-08-30T06:11:43;3.90;;;0.93;;
23434;SDS011;11890;45.380;11.028;2023-08-30T06:14:11;3.08;;;0.60;;
23434;SDS011;11890;45.380;11.028;2023-08-30T06:16:39;2.13;;;0.82;;
23434;SDS011;11890;45.380;11.028;2023-08-30T06:19:11;1.95;;;0.77;;
23434;SDS011;11890;45.380;11.028;2023-08-30T06:21:39;2.75;;;0.82;;
23434;SDS011;11890;45.380;11.028;2023-08-30T06:24:06;2.83;;;0.80;;
23434;SDS011;11890;45.380;11.028;2023-08-30T06:26:34;3.15;;;0.80;;
23434;SDS011;11890;45.380;11.028;2023-08-30T06:29:02;3.25;;;0.80;;
23434;SDS011;11890;45.380;11.028;2023-08-30T06:31:31;2.65;;;0.90;;
23434;SDS011;11890;45.380;11.028;2023-08-30T06:33:59;5.28;;;1.08;;
23434;SDS011;11890;45.380;11.028;2023-08-30T06:36:27;5.82;;;1.00;;
23434;SDS011;11890;45.380;11.028;2023-08-30T06:38:55;3.78;;;1.10;;
23434;SDS011;11890;45.380;11.028;2023-08-30T06:41:23;3.97;;;1.35;;
23434;SDS011;11890;45.380;11.028;2023-08-30T06:43:50;2.65;;;0.93;;
23434;SDS011;11890;45.380;11.028;2023-08-30T06:46:18;3.45;;;0.90;;
23434;SDS011;11890;45.380;11.028;2023-08-30T06:48:46;5.22;;;1.10;;
23434;SDS011;11890;45.380;11.028;2023-08-30T06:51:13;3.80;;;0.98;;
23434;SDS011;11890;45.380;11.028;2023-08-30T06:53:41;2.20;;;0.65;;
23434;SDS011;11890;45.380;11.028;2023-08-30T06:56:09;3.05;;;0.60;;
23434;SDS011;11890;45.380;11.028;2023-08-30T06:58:37;2.60;;;0.63;;
23434;SDS011;11890;45.380;11.028;2023-08-30T07:01:04;2.80;;;0.98;;
23434;SDS011;11890;45.380;11.028;2023-08-30T07:03:32;3.40;;;1.13;;
23434;SDS011;11890;45.380;11.028;2023-08-30T07:06:00;1.63;;;0.80;;
23434;SDS011;11890;45.380;11.028;2023-08-30T07:08:28;7.38;;;0.90;;
23434;SDS011;11890;45.380;11.028;2023-08-30T07:10:55;3.08;;;0.93;;
23434;SDS011;11890;45.380;11.028;2023-08-30T07:13:23;5.53;;;1.23;;
23434;SDS011;11890;45.380;11.028;2023-08-30T07:15:51;3.97;;;1.10;;
23434;SDS011;11890;45.380;11.028;2023-08-30T07:18:19;3.47;;;1.02;;
23434;SDS011;11890;45.380;11.028;2023-08-30T07:20:46;3.17;;;0.98;;
23434;SDS011;11890;45.380;11.028;2023-08-30T07:23:14;3.22;;;1.02;;
23434;SDS011;11890;45.380;11.028;2023-08-30T07:25:42;5.57;;;1.42;;
23434;SDS011;11890;45.380;11.028;2023-08-30T07:28:10;3.78;;;1.15;;
23434;SDS011;11890;45.380;11.028;2023-08-30T07:30:38;5.53;;;1.50;;
23434;SDS011;11890;45.380;11.028;2023-08-30T07:33:06;3.67;;;1.33;;
23434;SDS011;11890;45.380;11.028;2023-08-30T07:35:33;6.50;;;1.45;;
23434;SDS011;11890;45.380;11.028;2023-08-30T07:38:01;2.67;;;2.17;;
23434;SDS011;11890;45.380;11.028;2023-08-30T07:40:29;4.57;;;1.92;;
23434;SDS011;11890;45.380;11.028;2023-08-30T07:42:57;3.40;;;2.13;;
23434;SDS011;11890;45.380;11.028;2023-08-30T07:45:26;4.35;;;2.80;;
23434;SDS011;11890;45.380;11.028;2023-08-30T07:47:53;4.90;;;2.67;;
23434;SDS011;11890;45.380;11.028;2023-08-30T07:50:21;7.22;;;2.97;;
23434;SDS011;11890;45.380;11.028;2023-08-30T07:52:49;6.10;;;2.63;;
23434;SDS011;11890;45.380;11.028;2023-08-30T07:55:17;4.22;;;2.25;;
23434;SDS011;11890;45.380;11.028;2023-08-30T07:57:44;5.18;;;2.78;;
23434;SDS011;11890;45.380;11.028;2023-08-30T08:00:12;4.57;;;2.72;;
23434;SDS011;11890;45.380;11.028;2023-08-30T08:02:44;7.15;;;2.92;;
23434;SDS011;11890;45.380;11.028;2023-08-30T08:05:12;7.57;;;2.90;;
23434;SDS011;11890;45.380;11.028;2023-08-30T08:07:41;5.25;;;2.70;;
23434;SDS011;11890;45.380;11.028;2023-08-30T08:10:09;6.22;;;2.75;;
23434;SDS011;11890;45.380;11.028;2023-08-30T08:12:37;10.13;;;3.08;;
23434;SDS011;11890;45.380;11.028;2023-08-30T08:15:05;6.25;;;1.90;;
23434;SDS011;11890;45.380;11.028;2023-08-30T08:17:33;4.82;;;2.08;;
23434;SDS011;11890;45.380;11.028;2023-08-30T08:20:01;3.67;;;1.73;;
23434;SDS011;11890;45.380;11.028;2023-08-30T08:22:29;4.13;;;2.00;;
23434;SDS011;11890;45.380;11.028;2023-08-30T08:24:57;6.00;;;2.10;;
23434;SDS011;11890;45.380;11.028;2023-08-30T08:27:25;4.53;;;2.00;;
23434;SDS011;11890;45.380;11.028;2023-08-30T08:29:53;4.50;;;2.03;;
23434;SDS011;11890;45.380;11.028;2023-08-30T08:32:20;4.65;;;2.00;;
23434;SDS011;11890;45.380;11.028;2023-08-30T08:34:48;5.80;;;2.20;;
23434;SDS011;11890;45.380;11.028;2023-08-30T08:37:16;3.50;;;1.80;;
23434;SDS011;11890;45.380;11.028;2023-08-30T08:39:44;4.07;;;2.10;;
23434;SDS011;11890;45.380;11.028;2023-08-30T08:42:13;3.95;;;2.35;;
23434;SDS011;11890;45.380;11.028;2023-08-30T08:44:43;6.28;;;2.50;;
23434;SDS011;11890;45.380;11.028;2023-08-30T08:47:11;4.35;;;2.17;;
23434;SDS011;11890;45.380;11.028;2023-08-30T08:49:39;4.13;;;1.70;;
23434;SDS011;11890;45.380;11.028;2023-08-30T08:52:07;3.67;;;1.70;;
23434;SDS011;11890;45.380;11.028;2023-08-30T08:54:54;3.97;;;1.70;;
23434;SDS011;11890;45.380;11.028;2023-08-30T08:57:22;3.45;;;1.65;;
23434;SDS011;11890;45.380;11.028;2023-08-30T08:59:55;5.40;;;1.88;;
23434;SDS011;11890;45.380;11.028;2023-08-30T09:02:23;7.28;;;1.95;;
23434;SDS011;11890;45.380;11.028;2023-08-30T09:04:51;2.95;;;1.77;;
23434;SDS011;11890;45.380;11.028;2023-08-30T09:07:19;3.17;;;2.03;;
23434;SDS011;11890;45.380;11.028;2023-08-30T09:09:47;4.03;;;2.00;;
23434;SDS011;11890;45.380;11.028;2023-08-30T09:12:16;3.78;;;1.83;;
23434;SDS011;11890;45.380;11.028;2023-08-30T09:14:52;6.20;;;2.03;;
23434;SDS011;11890;45.380;11.028;2023-08-30T09:17:21;3.75;;;1.77;;
23434;SDS011;11890;45.380;11.028;2023-08-30T09:19:49;6.47;;;2.05;;
23434;SDS011;11890;45.380;11.028;2023-08-30T09:22:17;4.53;;;1.98;;
23434;SDS011;11890;45.380;11.028;2023-08-30T09:24:44;5.07;;;2.00;;
23434;SDS011;11890;45.380;11.028;2023-08-30T09:27:12;5.82;;;2.30;;
23434;SDS011;11890;45.380;11.028;2023-08-30T09:29:40;3.75;;;2.35;;
23434;SDS011;11890;45.380;11.028;2023-08-30T09:32:12;4.82;;;2.47;;
23434;SDS011;11890;45.380;11.028;2023-08-30T09:34:45;5.82;;;2.40;;
23434;SDS011;11890;45.380;11.028;2023-08-30T09:37:23;4.00;;;2.72;;
23434;SDS011;11890;45.380;11.028;2023-08-30T09:39:53;7.18;;;3.05;;
23434;SDS011;11890;45.380;11.028;2023-08-30T09:42:20;4.40;;;2.80;;
23434;SDS011;11890;45.380;11.028;2023-08-30T09:44:49;4.70;;;3.03;;
23434;SDS011;11890;45.380;11.028;2023-08-30T09:47:17;4.80;;;1.88;;
23434;SDS011;11890;45.380;11.028;2023-08-30T09:49:45;6.10;;;2.83;;
23434;SDS011;11890;45.380;11.028;2023-08-30T09:52:15;5.53;;;2.75;;
23434;SDS011;11890;45.380;11.028;2023-08-30T09:54:43;7.55;;;2.75;;
23434;SDS011;11890;45.380;11.028;2023-08-30T09:57:12;6.38;;;2.53;;
23434;SDS011;11890;45.380;11.028;2023-08-30T09:59:41;4.68;;;2.95;;
23434;SDS011;11890;45.380;11.028;2023-08-30T10:02:09;5.65;;;3.05;;
23434;SDS011;11890;45.380;11.028;2023-08-30T10:04:38;4.90;;;2.75;;
23434;SDS011;11890;45.380;11.028;2023-08-30T10:07:08;4.30;;;2.60;;
23434;SDS011;11890;45.380;11.028;2023-08-30T10:09:37;4.25;;;2.72;;
23434;SDS011;11890;45.380;11.028;2023-08-30T10:12:28;5.97;;;2.40;;
23434;SDS011;11890;45.380;11.028;2023-08-30T10:14:56;4.35;;;2.88;;
23434;SDS011;11890;45.380;11.028;2023-08-30T10:17:27;6.90;;;2.88;;
23434;SDS011;11890;45.380;11.028;2023-08-30T10:19:56;4.03;;;2.72;;
23434;SDS011;11890;45.380;11.028;2023-08-30T10:22:23;4.78;;;3.22;;
23434;SDS011;11890;45.380;11.028;2023-08-30T10:25:02;4.18;;;2.75;;
23434;SDS011;11890;45.380;11.028;2023-08-30T10:27:39;4.53;;;2.92;;
23434;SDS011;11890;45.380;11.028;2023-08-30T10:30:07;4.35;;;2.80;;
23434;SDS011;11890;45.380;11.028;2023-08-30T10:32:38;6.78;;;2.88;;
23434;SDS011;11890;45.380;11.028;2023-08-30T10:35:06;6.97;;;3.03;;
23434;SDS011;11890;45.380;11.028;2023-08-30T10:37:35;4.05;;;2.70;;
23434;SDS011;11890;45.380;11.028;2023-08-30T10:40:05;4.10;;;2.90;;
23434;SDS011;11890;45.380;11.028;2023-08-30T10:42:33;6.18;;;2.50;;
23434;SDS011;11890;45.380;11.028;2023-08-30T10:45:02;4.32;;;2.47;;
23434;SDS011;11890;45.380;11.028;2023-08-30T10:47:40;7.43;;;2.95;;
23434;SDS011;11890;45.380;11.028;2023-08-30T10:50:10;6.18;;;2.92;;
23434;SDS011;11890;45.380;11.028;2023-08-30T10:52:38;5.25;;;2.70;;
23434;SDS011;11890;45.380;11.028;2023-08-30T10:55:09;6.28;;;2.85;;
23434;SDS011;11890;45.380;11.028;2023-08-30T10:57:40;4.57;;;2.90;;
23434;SDS011;11890;45.380;11.028;2023-08-30T11:00:10;5.15;;;3.38;;
23434;SDS011;11890;45.380;11.028;2023-08-30T11:02:43;5.63;;;3.03;;
23434;SDS011;11890;45.380;11.028;2023-08-30T11:05:12;5.00;;;2.92;;
23434;SDS011;11890;45.380;11.028;2023-08-30T11:07:40;6.22;;;3.17;;
23434;SDS011;11890;45.380;11.028;2023-08-30T11:10:07;6.32;;;3.20;;
23434;SDS011;11890;45.380;11.028;2023-08-30T11:12:35;6.03;;;3.50;;
23434;SDS011;11890;45.380;11.028;2023-08-30T11:15:03;7.03;;;3.58;;
23434;SDS011;11890;45.380;11.028;2023-08-30T11:17:31;4.60;;;3.25;;
23434;SDS011;11890;45.380;11.028;2023-08-30T11:20:06;7.65;;;3.70;;
23434;SDS011;11890;45.380;11.028;2023-08-30T11:22:35;4.25;;;2.88;;
23434;SDS011;11890;45.380;11.028;2023-08-30T11:25:03;8.25;;;2.83;;
23434;SDS011;11890;45.380;11.028;2023-08-30T11:27:31;5.78;;;2.80;;
23434;SDS011;11890;45.380;11.028;2023-08-30T11:30:02;4.07;;;2.85;;
23434;SDS011;11890;45.380;11.028;2023-08-30T11:35:00;4.05;;;2.63;;
23434;SDS011;11890;45.380;11.028;2023-08-30T11:37:28;4.70;;;3.22;;
23434;SDS011;11890;45.380;11.028;2023-08-30T11:39:56;4.28;;;2.85;;
23434;SDS011;11890;45.380;11.028;2023-08-30T11:42:24;7.00;;;3.40;;
23434;SDS011;11890;45.380;11.028;2023-08-30T11:44:52;4.32;;;2.75;;
23434;SDS011;11890;45.380;11.028;2023-08-30T11:47:24;4.13;;;2.85;;
23434;SDS011;11890;45.380;11.028;2023-08-30T11:49:52;4.35;;;3.00;;
23434;SDS011;11890;45.380;11.028;2023-08-30T11:52:20;4.60;;;3.25;;
23434;SDS011;11890;45.380;11.028;2023-08-30T11:54:49;4.07;;;2.75;;
23434;SDS011;11890;45.380;11.028;2023-08-30T11:57:17;4.32;;;2.70;;
23434;SDS011;11890;45.380;11.028;2023-08-30T11:59:45;3.65;;;2.53;;
23434;SDS011;11890;45.380;11.028;2023-08-30T12:02:15;4.28;;;2.67;;
23434;SDS011;11890;45.380;11.028;2023-08-30T12:04:44;5.97;;;3.55;;
23434;SDS011;11890;45.380;11.028;2023-08-30T12:07:25;5.78;;;2.70;;
23434;SDS011;11890;45.380;11.028;2023-08-30T12:10:06;4.47;;;3.28;;
23434;SDS011;11890;45.380;11.028;2023-08-30T12:12:35;6.32;;;3.20;;
23434;SDS011;11890;45.380;11.028;2023-08-30T12:15:12;5.30;;;3.15;;
23434;SDS011;11890;45.380;11.028;2023-08-30T12:17:43;5.07;;;3.30;;
23434;SDS011;11890;45.380;11.028;2023-08-30T12:20:15;3.72;;;2.97;;
23434;SDS011;11890;45.380;11.028;2023-08-30T12:22:44;4.43;;;3.05;;
23434;SDS011;11890;45.380;11.028;2023-08-30T12:25:19;4.28;;;3.35;;
23434;SDS011;11890;45.380;11.028;2023-08-30T12:27:48;4.75;;;3.22;;
23434;SDS011;11890;45.380;11.028;2023-08-30T12:30:16;3.95;;;3.55;;
23434;SDS011;11890;45.380;11.028;2023-08-30T12:32:45;8.00;;;3.83;;
23434;SDS011;11890;45.380;11.028;2023-08-30T12:35:14;3.88;;;2.70;;
23434;SDS011;11890;45.380;11.028;2023-08-30T12:37:45;5.47;;;2.95;;
23434;SDS011;11890;45.380;11.028;2023-08-30T12:40:15;4.68;;;3.63;;
23434;SDS011;11890;45.380;11.028;2023-08-30T12:42:43;5.07;;;3.10;;
23434;SDS011;11890;45.380;11.028;2023-08-30T12:45:11;4.68;;;3.83;;
23434;SDS011;11890;45.380;11.028;2023-08-30T12:47:39;4.57;;;3.17;;
23434;SDS011;11890;45.380;11.028;2023-08-30T12:50:07;4.35;;;2.95;;
23434;SDS011;11890;45.380;11.028;2023-08-30T12:52:36;4.22;;;2.50;;
23434;SDS011;11890;45.380;11.028;2023-08-30T12:55:04;3.67;;;2.08;;
23434;SDS011;11890;45.380;11.028;2023-08-30T12:57:33;4.90;;;2.72;;
23434;SDS011;11890;45.380;11.028;2023-08-30T13:00:01;3.00;;;2.20;;
23434;SDS011;11890;45.380;11.028;2023-08-30T13:02:29;3.92;;;1.95;;
23434;SDS011;11890;45.380;11.028;2023-08-30T13:04:57;3.50;;;2.28;;
23434;SDS011;11890;45.380;11.028;2023-08-30T13:07:25;2.83;;;2.13;;
23434;SDS011;11890;45.380;11.028;2023-08-30T13:09:53;5.07;;;1.83;;
23434;SDS011;11890;45.380;11.028;2023-08-30T13:12:25;3.28;;;1.67;;
23434;SDS011;11890;45.380;11.028;2023-08-30T13:14:54;2.50;;;1.90;;
23434;SDS011;11890;45.380;11.028;2023-08-30T13:17:22;3.10;;;1.80;;
23434;SDS011;11890;45.380;11.028;2023-08-30T13:19:52;4.25;;;2.40;;
23434;SDS011;11890;45.380;11.028;2023-08-30T13:22:20;2.70;;;1.88;;
23434;SDS011;11890;45.380;11.028;2023-08-30T13:24:47;5.85;;;2.63;;
23434;SDS011;11890;45.380;11.028;2023-08-30T13:27:15;3.88;;;1.98;;
23434;SDS011;11890;45.380;11.028;2023-08-30T13:29:43;2.83;;;1.63;;
23434;SDS011;11890;45.380;11.028;2023-08-30T13:32:11;3.25;;;2.08;;
23434;SDS011;11890;45.380;11.028;2023-08-30T13:34:39;2.72;;;1.70;;
23434;SDS011;11890;45.380;11.028;2023-08-30T13:37:07;3.22;;;1.50;;
23434;SDS011;11890;45.380;11.028;2023-08-30T13:39:35;2.53;;;1.60;;
23434;SDS011;11890;45.380;11.028;2023-08-30T13:42:02;4.00;;;1.42;;
23434;SDS011;11890;45.380;11.028;2023-08-30T13:44:30;4.03;;;1.60;;
23434;SDS011;11890;45.380;11.028;2023-08-30T13:46:59;4.07;;;1.60;;
23434;SDS011;11890;45.380;11.028;2023-08-30T13:49:26;2.50;;;1.40;;
23434;SDS011;11890;45.380;11.028;2023-08-30T13:51:54;3.33;;;1.67;;
23434;SDS011;11890;45.380;11.028;2023-08-30T13:54:22;2.15;;;1.48;;
23434;SDS011;11890;45.380;11.028;2023-08-30T13:56:49;2.80;;;1.40;;
23434;SDS011;11890;45.380;11.028;2023-08-30T13:59:17;4.70;;;1.30;;
23434;SDS011;11890;45.380;11.028;2023-08-30T14:01:45;3.30;;;1.38;;
23434;SDS011;11890;45.380;11.028;2023-08-30T14:04:13;4.75;;;1.30;;
23434;SDS011;11890;45.380;11.028;2023-08-30T14:06:41;2.53;;;1.20;;
23434;SDS011;11890;45.380;11.028;2023-08-30T14:09:11;3.60;;;1.15;;
23434;SDS011;11890;45.380;11.028;2023-08-30T14:11:40;5.15;;;1.60;;
23434;SDS011;11890;45.380;11.028;2023-08-30T14:14:08;1.90;;;1.27;;
23434;SDS011;11890;45.380;11.028;2023-08-30T14:16:36;5.95;;;1.40;;
23434;SDS011;11890;45.380;11.028;2023-08-30T14:19:04;3.13;;;1.38;;
23434;SDS011;11890;45.380;11.028;2023-08-30T14:21:33;2.20;;;1.25;;
23434;SDS011;11890;45.380;11.028;2023-08-30T14:24:01;3.10;;;1.58;;
23434;SDS011;11890;45.380;11.028;2023-08-30T14:26:29;2.50;;;0.98;;
23434;SDS011;11890;45.380;11.028;2023-08-30T14:28:57;3.47;;;1.38;;
23434;SDS011;11890;45.380;11.028;2023-08-30T14:31:25;4.85;;;1.20;;
23434;SDS011;11890;45.380;11.028;2023-08-30T14:33:54;1.58;;;1.00;;
23434;SDS011;11890;45.380;11.028;2023-08-30T14:36:25;2.05;;;0.90;;
23434;SDS011;11890;45.380;11.028;2023-08-30T14:38:53;1.38;;;0.80;;
23434;SDS011;11890;45.380;11.028;2023-08-30T14:41:20;1.42;;;0.70;;
23434;SDS011;11890;45.380;11.028;2023-08-30T14:43:48;4.10;;;1.00;;
23434;SDS011;11890;45.380;11.028;2023-08-30T14:46:16;2.00;;;1.00;;
23434;SDS011;11890;45.380;11.028;2023-08-30T14:48:50;1.85;;;1.02;;